sensor_id;sensor_type;location;lat;lon;timestamp;P1;durP1;ratioP1;P2;durP2;ratioP2
39022;SDS011;25908;51.984;5.928;2022-09-03T00:01:13;1.55;;;0.88;;
39022;SDS011;25908;51.984;5.928;2022-09-03T00:03:48;2.67;;;1.40;;
39022;SDS011;25908;51.984;5.928;2022-09-03T00:06:25;4.70;;;1.30;;
39022;SDS011;25908;51.984;5.928;2022-09-03T00:12:01;2.70;;;1.20;;
39022;SDS011;25908;51.984;5.928;2022-09-03T00:17:14;4.28;;;1.30;;
39022;SDS011;25908;51.984;5.928;2022-09-03T00:19:51;3.53;;;1.00;;
39022;SDS011;25908;51.984;5.928;2022-09-03T00:22:31;2.75;;;1.23;;
39022;SDS011;25908;51.984;5.928;2022-09-03T00:25:01;5.03;;;1.27;;
39022;SDS011;25908;51.984;5.928;2022-09-03T00:27:31;5.20;;;1.30;;
39022;SDS011;25908;51.984;5.928;2022-09-03T00:30:02;2.63;;;1.10;;
39022;SDS011;25908;51.984;5.928;2022-09-03T00:32:36;2.22;;;1.00;;
39022;SDS011;25908;51.984;5.928;2022-09-03T00:35:08;2.75;;;1.15;;
39022;SDS011;25908;51.984;5.928;2022-09-03T00:37:40;3.75;;;1.23;;
39022;SDS011;25908;51.984;5.928;2022-09-03T00:40:09;3.63;;;1.05;;
39022;SDS011;25908;51.984;5.928;2022-09-03T00:53:39;3.42;;;0.85;;
39022;SDS011;25908;51.984;5.928;2022-09-03T00:56:33;2.58;;;1.10;;
39022;SDS011;25908;51.984;5.928;2022-09-03T01:01:57;3.88;;;1.20;;
39022;SDS011;25908;51.984;5.928;2022-09-03T01:07:48;7.30;;;1.20;;
39022;SDS011;25908;51.984;5.928;2022-09-03T01:10:29;4.88;;;1.30;;
39022;SDS011;25908;51.984;5.928;2022-09-03T01:32:22;8.40;;;1.23;;
39022;SDS011;25908;51.984;5.928;2022-09-03T01:40:35;3.35;;;1.52;;
39022;SDS011;25908;51.984;5.928;2022-09-03T01:59:12;2.10;;;1.17;;
39022;SDS011;25908;51.984;5.928;2022-09-03T02:01:45;5.45;;;1.45;;
39022;SDS011;25908;51.984;5.928;2022-09-03T02:04:24;3.15;;;1.20;;
39022;SDS011;25908;51.984;5.928;2022-09-03T02:06:51;1.50;;;0.98;;
39022;SDS011;25908;51.984;5.928;2022-09-03T02:09:17;4.03;;;1.30;;
39022;SDS011;25908;51.984;5.928;2022-09-03T02:11:45;3.22;;;1.30;;
39022;SDS011;25908;51.984;5.928;2022-09-03T02:14:16;2.45;;;1.20;;
39022;SDS011;25908;51.984;5.928;2022-09-03T02:16:42;3.08;;;0.90;;
39022;SDS011;25908;51.984;5.928;2022-09-03T02:19:12;2.47;;;1.38;;
39022;SDS011;25908;51.984;5.928;2022-09-03T02:21:46;3.03;;;1.17;;
39022;SDS011;25908;51.984;5.928;2022-09-03T02:24:17;2.35;;;0.90;;
39022;SDS011;25908;51.984;5.928;2022-09-03T02:26:42;2.38;;;1.10;;
39022;SDS011;25908;51.984;5.928;2022-09-03T02:29:09;3.58;;;1.20;;
39022;SDS011;25908;51.984;5.928;2022-09-03T02:31:35;2.95;;;1.10;;
39022;SDS011;25908;51.984;5.928;2022-09-03T02:34:00;2.72;;;1.10;;
39022;SDS011;25908;51.984;5.928;2022-09-03T02:36:28;2.78;;;1.40;;
39022;SDS011;25908;51.984;5.928;2022-09-03T02:38:56;2.55;;;1.20;;
39022;SDS011;25908;51.984;5.928;2022-09-03T02:41:22;3.08;;;1.20;;
39022;SDS011;25908;51.984;5.928;2022-09-03T02:44:11;2.38;;;1.23;;
39022;SDS011;25908;51.984;5.928;2022-09-03T02:46:45;2.42;;;1.13;;
39022;SDS011;25908;51.984;5.928;2022-09-03T02:49:26;2.45;;;1.30;;
39022;SDS011;25908;51.984;5.928;2022-09-03T02:51:56;3.28;;;1.05;;
39022;SDS011;25908;51.984;5.928;2022-09-03T02:54:29;2.95;;;1.23;;
39022;SDS011;25908;51.984;5.928;2022-09-03T02:56:57;3.88;;;1.20;;
39022;SDS011;25908;51.984;5.928;2022-09-03T02:59:23;3.15;;;1.15;;
39022;SDS011;25908;51.984;5.928;2022-09-03T03:01:49;5.18;;;1.20;;
39022;SDS011;25908;51.984;5.928;2022-09-03T03:04:14;2.70;;;0.80;;
39022;SDS011;25908;51.984;5.928;2022-09-03T03:06:40;5.70;;;1.38;;
39022;SDS011;25908;51.984;5.928;2022-09-03T03:09:05;2.30;;;1.08;;
39022;SDS011;25908;51.984;5.928;2022-09-03T03:11:32;2.88;;;1.30;;
39022;SDS011;25908;51.984;5.928;2022-09-03T03:13:58;2.67;;;1.20;;
39022;SDS011;25908;51.984;5.928;2022-09-03T03:16:24;2.45;;;1.20;;
39022;SDS011;25908;51.984;5.928;2022-09-03T03:18:49;2.83;;;1.13;;
39022;SDS011;25908;51.984;5.928;2022-09-03T03:21:17;4.88;;;1.38;;
39022;SDS011;25908;51.984;5.928;2022-09-03T03:23:43;2.72;;;1.20;;
39022;SDS011;25908;51.984;5.928;2022-09-03T03:26:10;2.35;;;1.13;;
39022;SDS011;25908;51.984;5.928;2022-09-03T03:28:38;3.25;;;1.30;;
39022;SDS011;25908;51.984;5.928;2022-09-03T03:31:06;4.72;;;1.20;;
39022;SDS011;25908;51.984;5.928;2022-09-03T03:33:37;3.03;;;1.10;;
39022;SDS011;25908;51.984;5.928;2022-09-03T03:36:07;2.67;;;1.05;;
39022;SDS011;25908;51.984;5.928;2022-09-03T03:38:38;2.35;;;1.00;;
39022;SDS011;25908;51.984;5.928;2022-09-03T03:41:17;3.50;;;1.40;;
39022;SDS011;25908;51.984;5.928;2022-09-03T03:43:51;2.03;;;1.13;;
39022;SDS011;25908;51.984;5.928;2022-09-03T03:46:20;2.15;;;0.88;;
39022;SDS011;25908;51.984;5.928;2022-09-03T03:48:47;3.05;;;1.10;;
39022;SDS011;25908;51.984;5.928;2022-09-03T03:51:14;2.17;;;1.00;;
39022;SDS011;25908;51.984;5.928;2022-09-03T03:53:39;6.20;;;1.20;;
39022;SDS011;25908;51.984;5.928;2022-09-03T03:56:06;2.78;;;1.10;;
39022;SDS011;25908;51.984;5.928;2022-09-03T03:58:34;2.55;;;1.13;;
39022;SDS011;25908;51.984;5.928;2022-09-03T04:01:12;2.53;;;1.10;;
39022;SDS011;25908;51.984;5.928;2022-09-03T04:03:40;3.10;;;1.10;;
39022;SDS011;25908;51.984;5.928;2022-09-03T04:06:06;4.45;;;1.30;;
39022;SDS011;25908;51.984;5.928;2022-09-03T04:08:33;2.60;;;1.27;;
39022;SDS011;25908;51.984;5.928;2022-09-03T04:11:01;3.90;;;1.00;;
39022;SDS011;25908;51.984;5.928;2022-09-03T04:13:29;1.90;;;0.95;;
39022;SDS011;25908;51.984;5.928;2022-09-03T04:16:00;4.35;;;1.10;;
39022;SDS011;25908;51.984;5.928;2022-09-03T04:21:15;3.05;;;1.42;;
39022;SDS011;25908;51.984;5.928;2022-09-03T04:23:43;2.58;;;1.17;;
39022;SDS011;25908;51.984;5.928;2022-09-03T04:26:11;3.35;;;1.33;;
39022;SDS011;25908;51.984;5.928;2022-09-03T04:28:39;3.08;;;1.20;;
39022;SDS011;25908;51.984;5.928;2022-09-03T04:31:09;4.95;;;1.67;;
39022;SDS011;25908;51.984;5.928;2022-09-03T04:33:36;2.65;;;1.30;;
39022;SDS011;25908;51.984;5.928;2022-09-03T04:36:10;3.30;;;1.30;;
39022;SDS011;25908;51.984;5.928;2022-09-03T04:38:38;3.05;;;1.20;;
39022;SDS011;25908;51.984;5.928;2022-09-03T04:41:09;1.90;;;1.00;;
39022;SDS011;25908;51.984;5.928;2022-09-03T04:43:36;3.90;;;1.00;;
39022;SDS011;25908;51.984;5.928;2022-09-03T04:46:03;3.38;;;1.17;;
39022;SDS011;25908;51.984;5.928;2022-09-03T04:48:30;2.33;;;1.05;;
39022;SDS011;25908;51.984;5.928;2022-09-03T04:51:01;2.30;;;1.17;;
39022;SDS011;25908;51.984;5.928;2022-09-03T04:53:30;4.45;;;1.00;;
39022;SDS011;25908;51.984;5.928;2022-09-03T04:55:56;4.03;;;1.15;;
39022;SDS011;25908;51.984;5.928;2022-09-03T04:58:22;2.08;;;1.00;;
39022;SDS011;25908;51.984;5.928;2022-09-03T05:00:47;2.67;;;1.08;;
39022;SDS011;25908;51.984;5.928;2022-09-03T05:03:13;2.28;;;1.02;;
39022;SDS011;25908;51.984;5.928;2022-09-03T05:05:39;3.45;;;1.17;;
39022;SDS011;25908;51.984;5.928;2022-09-03T05:08:04;3.35;;;1.30;;
39022;SDS011;25908;51.984;5.928;2022-09-03T05:10:31;4.50;;;1.15;;
39022;SDS011;25908;51.984;5.928;2022-09-03T05:13:01;5.43;;;1.40;;
39022;SDS011;25908;51.984;5.928;2022-09-03T05:15:28;2.45;;;1.00;;
39022;SDS011;25908;51.984;5.928;2022-09-03T05:17:56;3.75;;;1.20;;
39022;SDS011;25908;51.984;5.928;2022-09-03T05:20:22;2.22;;;1.10;;
39022;SDS011;25908;51.984;5.928;2022-09-03T05:22:49;4.05;;;1.00;;
39022;SDS011;25908;51.984;5.928;2022-09-03T05:25:14;3.47;;;0.90;;
39022;SDS011;25908;51.984;5.928;2022-09-03T05:27:40;1.98;;;0.90;;
39022;SDS011;25908;51.984;5.928;2022-09-03T05:30:06;2.97;;;0.90;;
39022;SDS011;25908;51.984;5.928;2022-09-03T05:32:32;2.40;;;1.00;;
39022;SDS011;25908;51.984;5.928;2022-09-03T05:34:58;7.35;;;1.70;;
39022;SDS011;25908;51.984;5.928;2022-09-03T05:37:23;4.15;;;1.00;;
39022;SDS011;25908;51.984;5.928;2022-09-03T05:39:49;4.75;;;0.93;;
39022;SDS011;25908;51.984;5.928;2022-09-03T05:42:14;6.63;;;0.98;;
39022;SDS011;25908;51.984;5.928;2022-09-03T05:44:40;3.67;;;1.25;;
39022;SDS011;25908;51.984;5.928;2022-09-03T05:47:07;2.25;;;1.00;;
39022;SDS011;25908;51.984;5.928;2022-09-03T05:49:32;2.05;;;1.10;;
39022;SDS011;25908;51.984;5.928;2022-09-03T05:51:58;1.48;;;0.90;;
39022;SDS011;25908;51.984;5.928;2022-09-03T05:54:24;2.80;;;1.30;;
39022;SDS011;25908;51.984;5.928;2022-09-03T05:56:50;2.38;;;1.10;;
39022;SDS011;25908;51.984;5.928;2022-09-03T05:59:15;2.53;;;1.10;;
39022;SDS011;25908;51.984;5.928;2022-09-03T06:01:42;2.40;;;0.80;;
39022;SDS011;25908;51.984;5.928;2022-09-03T06:04:11;1.95;;;1.00;;
39022;SDS011;25908;51.984;5.928;2022-09-03T06:06:39;2.28;;;1.00;;
39022;SDS011;25908;51.984;5.928;2022-09-03T06:09:07;3.45;;;1.00;;
39022;SDS011;25908;51.984;5.928;2022-09-03T06:11:35;3.88;;;1.00;;
39022;SDS011;25908;51.984;5.928;2022-09-03T06:14:02;2.08;;;1.13;;
39022;SDS011;25908;51.984;5.928;2022-09-03T06:16:30;4.90;;;1.40;;
39022;SDS011;25908;51.984;5.928;2022-09-03T06:18:57;3.00;;;1.38;;
39022;SDS011;25908;51.984;5.928;2022-09-03T06:21:23;4.03;;;0.98;;
39022;SDS011;25908;51.984;5.928;2022-09-03T06:23:49;4.68;;;1.10;;
39022;SDS011;25908;51.984;5.928;2022-09-03T06:26:22;2.97;;;1.30;;
39022;SDS011;25908;51.984;5.928;2022-09-03T06:28:48;4.40;;;1.13;;
39022;SDS011;25908;51.984;5.928;2022-09-03T06:31:14;4.18;;;1.30;;
39022;SDS011;25908;51.984;5.928;2022-09-03T06:33:42;3.05;;;1.17;;
39022;SDS011;25908;51.984;5.928;2022-09-03T06:36:12;3.47;;;1.17;;
39022;SDS011;25908;51.984;5.928;2022-09-03T06:38:42;5.07;;;1.45;;
39022;SDS011;25908;51.984;5.928;2022-09-03T06:41:09;1.85;;;0.88;;
39022;SDS011;25908;51.984;5.928;2022-09-03T06:43:38;3.80;;;0.98;;
39022;SDS011;25908;51.984;5.928;2022-09-03T06:46:06;4.00;;;1.10;;
39022;SDS011;25908;51.984;5.928;2022-09-03T06:48:33;2.47;;;1.20;;
39022;SDS011;25908;51.984;5.928;2022-09-03T06:51:04;4.25;;;1.13;;
39022;SDS011;25908;51.984;5.928;2022-09-03T06:53:34;5.05;;;1.63;;
39022;SDS011;25908;51.984;5.928;2022-09-03T06:56:03;2.35;;;1.17;;
39022;SDS011;25908;51.984;5.928;2022-09-03T06:58:34;4.70;;;1.25;;
39022;SDS011;25908;51.984;5.928;2022-09-03T07:01:08;2.85;;;1.00;;
39022;SDS011;25908;51.984;5.928;2022-09-03T07:03:37;3.72;;;1.15;;
39022;SDS011;25908;51.984;5.928;2022-09-03T07:06:07;4.25;;;1.05;;
39022;SDS011;25908;51.984;5.928;2022-09-03T07:08:34;3.33;;;1.40;;
39022;SDS011;25908;51.984;5.928;2022-09-03T07:11:01;3.80;;;1.13;;
39022;SDS011;25908;51.984;5.928;2022-09-03T07:13:30;3.90;;;1.02;;
39022;SDS011;25908;51.984;5.928;2022-09-03T07:16:00;2.97;;;1.10;;
39022;SDS011;25908;51.984;5.928;2022-09-03T07:18:27;2.72;;;1.67;;
39022;SDS011;25908;51.984;5.928;2022-09-03T07:21:01;2.50;;;1.20;;
39022;SDS011;25908;51.984;5.928;2022-09-03T07:23:47;3.47;;;1.17;;
39022;SDS011;25908;51.984;5.928;2022-09-03T07:26:15;9.30;;;1.40;;
39022;SDS011;25908;51.984;5.928;2022-09-03T07:28:43;8.90;;;1.25;;
39022;SDS011;25908;51.984;5.928;2022-09-03T07:34:06;3.22;;;0.75;;
39022;SDS011;25908;51.984;5.928;2022-09-03T07:36:37;7.75;;;1.15;;
39022;SDS011;25908;51.984;5.928;2022-09-03T07:39:07;6.47;;;0.90;;
39022;SDS011;25908;51.984;5.928;2022-09-03T07:41:35;2.65;;;0.93;;
39022;SDS011;25908;51.984;5.928;2022-09-03T07:44:01;3.17;;;1.10;;
39022;SDS011;25908;51.984;5.928;2022-09-03T07:46:31;2.97;;;1.15;;
39022;SDS011;25908;51.984;5.928;2022-09-03T07:48:59;2.20;;;1.10;;
39022;SDS011;25908;51.984;5.928;2022-09-03T07:51:30;4.78;;;1.13;;
39022;SDS011;25908;51.984;5.928;2022-09-03T07:53:58;2.90;;;0.90;;
39022;SDS011;25908;51.984;5.928;2022-09-03T07:56:26;3.97;;;1.20;;
39022;SDS011;25908;51.984;5.928;2022-09-03T07:58:55;5.18;;;1.10;;
39022;SDS011;25908;51.984;5.928;2022-09-03T08:01:21;4.90;;;1.10;;
39022;SDS011;25908;51.984;5.928;2022-09-03T08:03:48;2.92;;;1.10;;
39022;SDS011;25908;51.984;5.928;2022-09-03T08:06:16;6.85;;;1.27;;
39022;SDS011;25908;51.984;5.928;2022-09-03T08:08:43;4.80;;;1.10;;
39022;SDS011;25908;51.984;5.928;2022-09-03T08:11:16;1.60;;;0.90;;
39022;SDS011;25908;51.984;5.928;2022-09-03T08:13:52;2.42;;;0.90;;
39022;SDS011;25908;51.984;5.928;2022-09-03T08:16:25;3.35;;;1.00;;
39022;SDS011;25908;51.984;5.928;2022-09-03T08:18:53;2.22;;;0.95;;
39022;SDS011;25908;51.984;5.928;2022-09-03T08:21:18;7.10;;;1.00;;
39022;SDS011;25908;51.984;5.928;2022-09-03T08:23:45;2.03;;;1.10;;
39022;SDS011;25908;51.984;5.928;2022-09-03T08:26:14;4.35;;;1.20;;
39022;SDS011;25908;51.984;5.928;2022-09-03T08:28:40;3.92;;;1.05;;
39022;SDS011;25908;51.984;5.928;2022-09-03T08:31:25;4.60;;;1.33;;
39022;SDS011;25908;51.984;5.928;2022-09-03T08:33:52;2.38;;;1.10;;
39022;SDS011;25908;51.984;5.928;2022-09-03T08:38:47;4.03;;;1.10;;
39022;SDS011;25908;51.984;5.928;2022-09-03T08:41:19;3.45;;;1.10;;
39022;SDS011;25908;51.984;5.928;2022-09-03T08:44:05;2.47;;;0.90;;
39022;SDS011;25908;51.984;5.928;2022-09-03T08:46:48;4.40;;;1.25;;
39022;SDS011;25908;51.984;5.928;2022-09-03T08:49:22;6.75;;;1.10;;
39022;SDS011;25908;51.984;5.928;2022-09-03T08:51:55;4.88;;;1.38;;
39022;SDS011;25908;51.984;5.928;2022-09-03T08:54:27;5.95;;;1.00;;
39022;SDS011;25908;51.984;5.928;2022-09-03T08:56:55;5.75;;;1.20;;
39022;SDS011;25908;51.984;5.928;2022-09-03T09:01:54;4.47;;;1.10;;
39022;SDS011;25908;51.984;5.928;2022-09-03T09:05:11;1.85;;;1.10;;
39022;SDS011;25908;51.984;5.928;2022-09-03T09:07:31;2.45;;;1.00;;
39022;SDS011;25908;51.984;5.928;2022-09-03T09:10:13;3.00;;;1.15;;
39022;SDS011;25908;51.984;5.928;2022-09-03T09:16:09;3.95;;;1.17;;
39022;SDS011;25908;51.984;5.928;2022-09-03T09:21:36;3.17;;;0.90;;
39022;SDS011;25908;51.984;5.928;2022-09-03T09:24:23;3.30;;;1.15;;
39022;SDS011;25908;51.984;5.928;2022-09-03T09:27:01;4.90;;;1.10;;
39022;SDS011;25908;51.984;5.928;2022-09-03T09:29:31;3.08;;;1.08;;
39022;SDS011;25908;51.984;5.928;2022-09-03T09:34:25;3.78;;;0.88;;
39022;SDS011;25908;51.984;5.928;2022-09-03T09:36:54;3.20;;;1.20;;
39022;SDS011;25908;51.984;5.928;2022-09-03T09:39:21;4.75;;;1.00;;
39022;SDS011;25908;51.984;5.928;2022-09-03T09:42:00;2.78;;;0.93;;
39022;SDS011;25908;51.984;5.928;2022-09-03T09:44:32;4.82;;;0.95;;
39022;SDS011;25908;51.984;5.928;2022-09-03T09:47:01;2.28;;;0.80;;
39022;SDS011;25908;51.984;5.928;2022-09-03T09:49:33;3.25;;;0.90;;
39022;SDS011;25908;51.984;5.928;2022-09-03T09:52:08;1.98;;;0.75;;
39022;SDS011;25908;51.984;5.928;2022-09-03T09:54:38;3.10;;;1.10;;
39022;SDS011;25908;51.984;5.928;2022-09-03T09:57:06;6.07;;;0.82;;
39022;SDS011;25908;51.984;5.928;2022-09-03T09:59:38;4.03;;;0.98;;
39022;SDS011;25908;51.984;5.928;2022-09-03T10:07:04;2.15;;;0.85;;
39022;SDS011;25908;51.984;5.928;2022-09-03T10:09:56;4.05;;;0.95;;
39022;SDS011;25908;51.984;5.928;2022-09-03T10:12:43;2.95;;;0.93;;
39022;SDS011;25908;51.984;5.928;2022-09-03T10:23:20;4.32;;;1.00;;
39022;SDS011;25908;51.984;5.928;2022-09-03T10:28:31;2.88;;;0.82;;
39022;SDS011;25908;51.984;5.928;2022-09-03T10:34:56;5.68;;;1.00;;
39022;SDS011;25908;51.984;5.928;2022-09-03T10:37:06;6.15;;;1.55;;
39022;SDS011;25908;51.984;5.928;2022-09-03T10:39:50;6.82;;;1.10;;
39022;SDS011;25908;51.984;5.928;2022-09-03T10:48:13;1.83;;;0.80;;
39022;SDS011;25908;51.984;5.928;2022-09-03T10:50:58;2.95;;;1.27;;
39022;SDS011;25908;51.984;5.928;2022-09-03T10:58:43;3.30;;;0.90;;
39022;SDS011;25908;51.984;5.928;2022-09-03T11:01:36;3.55;;;1.00;;
39022;SDS011;25908;51.984;5.928;2022-09-03T11:04:19;4.70;;;1.05;;
39022;SDS011;25908;51.984;5.928;2022-09-03T11:06:54;4.57;;;0.90;;
39022;SDS011;25908;51.984;5.928;2022-09-03T11:09:40;6.03;;;1.05;;
39022;SDS011;25908;51.984;5.928;2022-09-03T11:12:18;3.25;;;1.38;;
39022;SDS011;25908;51.984;5.928;2022-09-03T11:14:55;2.65;;;0.90;;
39022;SDS011;25908;51.984;5.928;2022-09-03T11:17:39;3.63;;;0.80;;
39022;SDS011;25908;51.984;5.928;2022-09-03T11:20:24;4.97;;;1.00;;
39022;SDS011;25908;51.984;5.928;2022-09-03T11:22:52;3.20;;;0.95;;
39022;SDS011;25908;51.984;5.928;2022-09-03T11:25:21;2.88;;;1.08;;
39022;SDS011;25908;51.984;5.928;2022-09-03T11:33:40;5.15;;;0.80;;
39022;SDS011;25908;51.984;5.928;2022-09-03T11:36:26;2.67;;;0.90;;
39022;SDS011;25908;51.984;5.928;2022-09-03T11:38:54;4.10;;;1.38;;
39022;SDS011;25908;51.984;5.928;2022-09-03T11:41:27;4.95;;;1.08;;
39022;SDS011;25908;51.984;5.928;2022-09-03T11:44:09;4.35;;;0.80;;
39022;SDS011;25908;51.984;5.928;2022-09-03T11:46:40;2.53;;;0.98;;
39022;SDS011;25908;51.984;5.928;2022-09-03T11:49:26;4.18;;;0.95;;
39022;SDS011;25908;51.984;5.928;2022-09-03T11:51:58;4.00;;;1.00;;
39022;SDS011;25908;51.984;5.928;2022-09-03T11:54:26;3.55;;;1.10;;
39022;SDS011;25908;51.984;5.928;2022-09-03T11:57:05;7.00;;;1.00;;
39022;SDS011;25908;51.984;5.928;2022-09-03T11:59:40;4.22;;;1.30;;
39022;SDS011;25908;51.984;5.928;2022-09-03T12:02:13;4.07;;;0.93;;
39022;SDS011;25908;51.984;5.928;2022-09-03T12:04:52;2.47;;;0.98;;
39022;SDS011;25908;51.984;5.928;2022-09-03T12:07:35;3.28;;;0.80;;
39022;SDS011;25908;51.984;5.928;2022-09-03T12:15:59;2.80;;;0.90;;
39022;SDS011;25908;51.984;5.928;2022-09-03T12:18:44;6.03;;;1.23;;
39022;SDS011;25908;51.984;5.928;2022-09-03T12:21:15;5.65;;;1.08;;
39022;SDS011;25908;51.984;5.928;2022-09-03T12:23:49;2.35;;;0.85;;
39022;SDS011;25908;51.984;5.928;2022-09-03T12:26:17;2.90;;;1.00;;
39022;SDS011;25908;51.984;5.928;2022-09-03T12:28:47;5.78;;;1.10;;
39022;SDS011;25908;51.984;5.928;2022-09-03T12:33:57;2.72;;;1.15;;
39022;SDS011;25908;51.984;5.928;2022-09-03T12:36:24;2.65;;;0.90;;
39022;SDS011;25908;51.984;5.928;2022-09-03T12:38:51;3.38;;;1.13;;
39022;SDS011;25908;51.984;5.928;2022-09-03T12:41:26;4.63;;;1.27;;
39022;SDS011;25908;51.984;5.928;2022-09-03T12:43:56;3.70;;;0.98;;
39022;SDS011;25908;51.984;5.928;2022-09-03T12:46:23;4.30;;;1.25;;
39022;SDS011;25908;51.984;5.928;2022-09-03T12:49:04;3.63;;;1.08;;
39022;SDS011;25908;51.984;5.928;2022-09-03T12:51:41;2.80;;;1.10;;
39022;SDS011;25908;51.984;5.928;2022-09-03T12:54:08;5.97;;;1.20;;
39022;SDS011;25908;51.984;5.928;2022-09-03T12:56:48;4.65;;;1.10;;
39022;SDS011;25908;51.984;5.928;2022-09-03T12:59:20;3.22;;;1.00;;
39022;SDS011;25908;51.984;5.928;2022-09-03T13:01:47;2.83;;;1.23;;
39022;SDS011;25908;51.984;5.928;2022-09-03T13:04:26;4.72;;;1.30;;
39022;SDS011;25908;51.984;5.928;2022-09-03T13:07:03;4.63;;;1.27;;
39022;SDS011;25908;51.984;5.928;2022-09-03T13:09:44;2.60;;;1.50;;
39022;SDS011;25908;51.984;5.928;2022-09-03T13:12:21;1.63;;;0.93;;
39022;SDS011;25908;51.984;5.928;2022-09-03T13:15:03;2.97;;;1.40;;
39022;SDS011;25908;51.984;5.928;2022-09-03T13:17:36;5.38;;;1.27;;
39022;SDS011;25908;51.984;5.928;2022-09-03T13:21:01;4.85;;;1.30;;
39022;SDS011;25908;51.984;5.928;2022-09-03T13:26:35;3.08;;;1.15;;
39022;SDS011;25908;51.984;5.928;2022-09-03T13:32:11;4.53;;;1.30;;
39022;SDS011;25908;51.984;5.928;2022-09-03T13:34:47;3.22;;;1.27;;
39022;SDS011;25908;51.984;5.928;2022-09-03T13:37:24;3.30;;;1.58;;
39022;SDS011;25908;51.984;5.928;2022-09-03T13:39:55;2.58;;;1.33;;
39022;SDS011;25908;51.984;5.928;2022-09-03T13:42:30;3.60;;;1.40;;
39022;SDS011;25908;51.984;5.928;2022-09-03T13:50:14;4.45;;;1.70;;
39022;SDS011;25908;51.984;5.928;2022-09-03T13:52:56;6.05;;;1.20;;
39022;SDS011;25908;51.984;5.928;2022-09-03T13:55:45;2.60;;;1.50;;
39022;SDS011;25908;51.984;5.928;2022-09-03T14:03:43;5.32;;;1.25;;
39022;SDS011;25908;51.984;5.928;2022-09-03T14:06:37;4.30;;;1.70;;
39022;SDS011;25908;51.984;5.928;2022-09-03T14:12:03;7.07;;;1.88;;
39022;SDS011;25908;51.984;5.928;2022-09-03T14:20:05;5.20;;;1.83;;
39022;SDS011;25908;51.984;5.928;2022-09-03T14:25:18;4.15;;;1.42;;
39022;SDS011;25908;51.984;5.928;2022-09-03T14:27:45;4.80;;;1.35;;
39022;SDS011;25908;51.984;5.928;2022-09-03T14:35:54;4.38;;;1.88;;
39022;SDS011;25908;51.984;5.928;2022-09-03T14:38:38;4.70;;;1.50;;
39022;SDS011;25908;51.984;5.928;2022-09-03T14:41:48;5.63;;;1.60;;
39022;SDS011;25908;51.984;5.928;2022-09-03T14:47:02;2.75;;;1.20;;
39022;SDS011;25908;51.984;5.928;2022-09-03T14:49:51;5.35;;;1.23;;
39022;SDS011;25908;51.984;5.928;2022-09-03T14:56:02;3.55;;;1.30;;
39022;SDS011;25908;51.984;5.928;2022-09-03T14:58:38;3.13;;;1.10;;
39022;SDS011;25908;51.984;5.928;2022-09-03T15:01:32;2.78;;;1.08;;
39022;SDS011;25908;51.984;5.928;2022-09-03T15:04:12;4.10;;;1.40;;
39022;SDS011;25908;51.984;5.928;2022-09-03T15:09:44;4.80;;;1.50;;
39022;SDS011;25908;51.984;5.928;2022-09-03T15:12:36;4.07;;;1.50;;
39022;SDS011;25908;51.984;5.928;2022-09-03T15:18:10;3.85;;;1.48;;
39022;SDS011;25908;51.984;5.928;2022-09-03T15:20:52;2.95;;;1.40;;
39022;SDS011;25908;51.984;5.928;2022-09-03T15:26:19;1.75;;;1.20;;
39022;SDS011;25908;51.984;5.928;2022-09-03T15:31:58;4.13;;;1.33;;
39022;SDS011;25908;51.984;5.928;2022-09-03T15:34:43;5.40;;;2.05;;
39022;SDS011;25908;51.984;5.928;2022-09-03T15:37:27;3.47;;;1.20;;
39022;SDS011;25908;51.984;5.928;2022-09-03T15:40:06;4.25;;;1.33;;
39022;SDS011;25908;51.984;5.928;2022-09-03T15:42:39;5.03;;;2.05;;
39022;SDS011;25908;51.984;5.928;2022-09-03T15:45:14;3.25;;;1.40;;
39022;SDS011;25908;51.984;5.928;2022-09-03T15:52:58;2.50;;;1.35;;
39022;SDS011;25908;51.984;5.928;2022-09-03T15:56:05;5.45;;;1.92;;
39022;SDS011;25908;51.984;5.928;2022-09-03T15:58:49;2.78;;;1.25;;
39022;SDS011;25908;51.984;5.928;2022-09-03T16:05:09;4.30;;;1.42;;
39022;SDS011;25908;51.984;5.928;2022-09-03T16:12:39;3.53;;;1.30;;
39022;SDS011;25908;51.984;5.928;2022-09-03T16:15:13;4.07;;;1.70;;
39022;SDS011;25908;51.984;5.928;2022-09-03T16:26:02;2.92;;;1.42;;
39022;SDS011;25908;51.984;5.928;2022-09-03T16:45:02;2.35;;;1.58;;
39022;SDS011;25908;51.984;5.928;2022-09-03T16:50:39;5.53;;;1.30;;
39022;SDS011;25908;51.984;5.928;2022-09-03T16:56:09;4.60;;;1.57;;
39022;SDS011;25908;51.984;5.928;2022-09-03T16:58:47;3.85;;;1.50;;
39022;SDS011;25908;51.984;5.928;2022-09-03T17:01:35;3.15;;;1.67;;
39022;SDS011;25908;51.984;5.928;2022-09-03T17:07:24;3.00;;;1.77;;
39022;SDS011;25908;51.984;5.928;2022-09-03T17:10:34;5.13;;;1.90;;
39022;SDS011;25908;51.984;5.928;2022-09-03T17:29:14;2.50;;;1.65;;
39022;SDS011;25908;51.984;5.928;2022-09-03T17:31:48;2.55;;;1.60;;
39022;SDS011;25908;51.984;5.928;2022-09-03T17:39:58;3.15;;;1.75;;
39022;SDS011;25908;51.984;5.928;2022-09-03T17:42:47;3.22;;;1.63;;
39022;SDS011;25908;51.984;5.928;2022-09-03T17:45:28;7.57;;;1.90;;
39022;SDS011;25908;51.984;5.928;2022-09-03T17:51:09;4.55;;;2.00;;
39022;SDS011;25908;51.984;5.928;2022-09-03T17:54:04;4.00;;;2.10;;
39022;SDS011;25908;51.984;5.928;2022-09-03T17:59:29;4.25;;;1.77;;
39022;SDS011;25908;51.984;5.928;2022-09-03T18:02:15;5.07;;;2.00;;
39022;SDS011;25908;51.984;5.928;2022-09-03T18:05:15;3.03;;;1.92;;
39022;SDS011;25908;51.984;5.928;2022-09-03T18:07:59;3.10;;;1.88;;
39022;SDS011;25908;51.984;5.928;2022-09-03T18:10:31;4.93;;;2.70;;
39022;SDS011;25908;51.984;5.928;2022-09-03T18:18:39;9.32;;;2.20;;
39022;SDS011;25908;51.984;5.928;2022-09-03T18:21:12;4.47;;;1.90;;
39022;SDS011;25908;51.984;5.928;2022-09-03T18:24:24;4.82;;;2.67;;
39022;SDS011;25908;51.984;5.928;2022-09-03T18:27:28;3.30;;;2.00;;
39022;SDS011;25908;51.984;5.928;2022-09-03T18:30:19;6.68;;;2.50;;
39022;SDS011;25908;51.984;5.928;2022-09-03T18:33:03;4.47;;;2.28;;
39022;SDS011;25908;51.984;5.928;2022-09-03T18:35:47;4.47;;;2.60;;
39022;SDS011;25908;51.984;5.928;2022-09-03T18:38:35;4.50;;;2.00;;
39022;SDS011;25908;51.984;5.928;2022-09-03T18:41:25;4.63;;;2.97;;
39022;SDS011;25908;51.984;5.928;2022-09-03T18:44:38;4.32;;;2.30;;
39022;SDS011;25908;51.984;5.928;2022-09-03T18:47:50;4.47;;;2.10;;
39022;SDS011;25908;51.984;5.928;2022-09-03T18:56:42;3.58;;;2.15;;
39022;SDS011;25908;51.984;5.928;2022-09-03T19:11:28;3.10;;;2.03;;
39022;SDS011;25908;51.984;5.928;2022-09-03T19:14:24;4.25;;;2.70;;
39022;SDS011;25908;51.984;5.928;2022-09-03T19:20:29;11.18;;;3.13;;
39022;SDS011;25908;51.984;5.928;2022-09-03T19:23:14;4.53;;;3.38;;
39022;SDS011;25908;51.984;5.928;2022-09-03T19:26:07;4.38;;;3.20;;
39022;SDS011;25908;51.984;5.928;2022-09-03T19:29:20;7.85;;;3.28;;
39022;SDS011;25908;51.984;5.928;2022-09-03T19:32:33;7.97;;;3.63;;
39022;SDS011;25908;51.984;5.928;2022-09-03T19:42:07;4.22;;;2.83;;
39022;SDS011;25908;51.984;5.928;2022-09-03T19:48:01;6.82;;;5.10;;
39022;SDS011;25908;51.984;5.928;2022-09-03T19:51:14;6.85;;;5.00;;
39022;SDS011;25908;51.984;5.928;2022-09-03T19:54:03;7.00;;;5.18;;
39022;SDS011;25908;51.984;5.928;2022-09-03T19:56:52;6.45;;;4.30;;
39022;SDS011;25908;51.984;5.928;2022-09-03T19:59:39;6.93;;;4.43;;
39022;SDS011;25908;51.984;5.928;2022-09-03T20:02:25;6.65;;;4.03;;
39022;SDS011;25908;51.984;5.928;2022-09-03T20:05:10;4.82;;;3.40;;
39022;SDS011;25908;51.984;5.928;2022-09-03T20:07:59;6.00;;;3.55;;
39022;SDS011;25908;51.984;5.928;2022-09-03T20:10:44;6.22;;;3.50;;
39022;SDS011;25908;51.984;5.928;2022-09-03T20:13:14;8.77;;;4.57;;
39022;SDS011;25908;51.984;5.928;2022-09-03T20:16:01;6.35;;;3.97;;
39022;SDS011;25908;51.984;5.928;2022-09-03T20:18:51;6.72;;;3.80;;
39022;SDS011;25908;51.984;5.928;2022-09-03T20:21:34;6.72;;;3.75;;
39022;SDS011;25908;51.984;5.928;2022-09-03T20:34:56;7.55;;;5.10;;